sensor_id;sensor_type;location;lat;lon;timestamp;pressure;altitude;pressure_sealevel;temperature;humidity
77893;BME280;67087;50.094;14.338;2023-02-28T00:00:54;99078.56;;;25.12;34.59
77893;BME280;67087;50.094;14.338;2023-02-28T00:03:19;99078.56;;;24.80;34.65
77893;BME280;67087;50.094;14.338;2023-02-28T00:05:44;99078.73;;;25.09;34.51
77893;BME280;67087;50.094;14.338;2023-02-28T00:08:09;99078.05;;;25.00;34.67
77893;BME280;67087;50.094;14.338;2023-02-28T00:10:35;99075.99;;;24.87;34.98
77893;BME280;67087;50.094;14.338;2023-02-28T00:13:02;99075.57;;;24.94;34.80
77893;BME280;67087;50.094;14.338;2023-02-28T00:15:25;99074.37;;;24.72;34.72
77893;BME280;67087;50.094;14.338;2023-02-28T00:17:50;99068.01;;;25.02;34.73
77893;BME280;67087;50.094;14.338;2023-02-28T00:20:16;99071.97;;;24.76;34.68
77893;BME280;67087;50.094;14.338;2023-02-28T00:22:43;99071.42;;;25.05;34.66
77893;BME280;67087;50.094;14.338;2023-02-28T00:25:07;99074.02;;;25.11;34.84
77893;BME280;67087;50.094;14.338;2023-02-28T00:27:31;99076.94;;;24.93;34.77
77893;BME280;67087;50.094;14.338;2023-02-28T00:29:56;99076.64;;;24.80;35.01
77893;BME280;67087;50.094;14.338;2023-02-28T00:32:21;99075.20;;;24.78;34.99
77893;BME280;67087;50.094;14.338;2023-02-28T00:34:46;99075.54;;;24.87;34.91
77893;BME280;67087;50.094;14.338;2023-02-28T00:37:12;99074.65;;;24.69;35.09
77893;BME280;67087;50.094;14.338;2023-02-28T00:39:37;99072.37;;;24.59;35.30
77893;BME280;67087;50.094;14.338;2023-02-28T00:42:02;99073.77;;;24.53;35.34
77893;BME280;67087;50.094;14.338;2023-02-28T00:44:27;99074.43;;;24.76;35.41
77893;BME280;67087;50.094;14.338;2023-02-28T00:46:52;99072.86;;;24.98;35.48
77893;BME280;67087;50.094;14.338;2023-02-28T00:49:17;99069.69;;;24.50;35.47
77893;BME280;67087;50.094;14.338;2023-02-28T00:51:42;99069.94;;;24.50;35.45
77893;BME280;67087;50.094;14.338;2023-02-28T00:54:07;99070.36;;;24.84;35.29
77893;BME280;67087;50.094;14.338;2023-02-28T00:56:32;99067.56;;;24.52;35.28
77893;BME280;67087;50.094;14.338;2023-02-28T00:58:57;99070.33;;;24.59;35.18
77893;BME280;67087;50.094;14.338;2023-02-28T01:01:23;99070.84;;;24.90;35.11
77893;BME280;67087;50.094;14.338;2023-02-28T01:03:48;99069.23;;;24.51;35.34
77893;BME280;67087;50.094;14.338;2023-02-28T01:06:13;99066.61;;;24.77;35.36
77893;BME280;67087;50.094;14.338;2023-02-28T01:08:38;99069.24;;;24.84;35.19
77893;BME280;67087;50.094;14.338;2023-02-28T01:11:08;99067.93;;;24.46;35.33
77893;BME280;67087;50.094;14.338;2023-02-28T01:13:28;99067.05;;;24.48;35.34
77893;BME280;67087;50.094;14.338;2023-02-28T01:15:55;99066.76;;;24.74;35.27
77893;BME280;67087;50.094;14.338;2023-02-28T01:18:19;99064.24;;;24.55;35.45
77893;BME280;67087;50.094;14.338;2023-02-28T01:20:44;99065.96;;;24.73;35.39
77893;BME280;67087;50.094;14.338;2023-02-28T01:23:09;99064.32;;;24.47;35.36
77893;BME280;67087;50.094;14.338;2023-02-28T01:25:34;99062.97;;;24.78;35.27
77893;BME280;67087;50.094;14.338;2023-02-28T01:27:59;99062.53;;;24.46;35.41
77893;BME280;67087;50.094;14.338;2023-02-28T01:30:24;99062.10;;;24.98;35.38
77893;BME280;67087;50.094;14.338;2023-02-28T01:32:49;99066.68;;;24.43;35.45
77893;BME280;67087;50.094;14.338;2023-02-28T01:35:15;99068.34;;;24.66;35.78
77893;BME280;67087;50.094;14.338;2023-02-28T01:37:40;99065.41;;;24.59;35.54
77893;BME280;67087;50.094;14.338;2023-02-28T01:40:07;99063.51;;;24.56;35.64
77893;BME280;67087;50.094;14.338;2023-02-28T01:42:30;99063.09;;;24.23;35.67
77893;BME280;67087;50.094;14.338;2023-02-28T01:45:00;99061.45;;;24.27;35.64
77893;BME280;67087;50.094;14.338;2023-02-28T01:47:21;99061.33;;;24.71;35.68
77893;BME280;67087;50.094;14.338;2023-02-28T01:49:46;99058.72;;;24.68;35.79
77893;BME280;67087;50.094;14.338;2023-02-28T01:52:12;99057.95;;;24.49;35.68
77893;BME280;67087;50.094;14.338;2023-02-28T01:54:36;99055.90;;;24.24;35.64
77893;BME280;67087;50.094;14.338;2023-02-28T01:57:05;99050.10;;;24.22;35.71
77893;BME280;67087;50.094;14.338;2023-02-28T01:59:31;99049.04;;;24.70;35.63
77893;BME280;67087;50.094;14.338;2023-02-28T02:01:53;99046.56;;;24.45;35.77
77893;BME280;67087;50.094;14.338;2023-02-28T02:04:17;99044.79;;;24.74;35.75
77893;BME280;67087;50.094;14.338;2023-02-28T02:06:44;99046.83;;;24.63;35.84
77893;BME280;67087;50.094;14.338;2023-02-28T02:09:08;99043.81;;;24.49;35.68
77893;BME280;67087;50.094;14.338;2023-02-28T02:11:34;99046.43;;;24.20;35.75
77893;BME280;67087;50.094;14.338;2023-02-28T02:14:12;99041.69;;;24.18;35.68
77893;BME280;67087;50.094;14.338;2023-02-28T02:16:34;99041.93;;;24.48;35.71
77893;BME280;67087;50.094;14.338;2023-02-28T02:18:52;99040.52;;;24.60;35.96
77893;BME280;67087;50.094;14.338;2023-02-28T02:21:33;99041.44;;;24.70;35.72
77893;BME280;67087;50.094;14.338;2023-02-28T02:23:53;99039.71;;;24.49;35.74
77893;BME280;67087;50.094;14.338;2023-02-28T02:26:17;99040.06;;;24.82;35.76
77893;BME280;67087;50.094;14.338;2023-02-28T02:28:54;99040.89;;;24.10;35.85
77893;BME280;67087;50.094;14.338;2023-02-28T02:31:06;99040.99;;;24.08;35.82
77893;BME280;67087;50.094;14.338;2023-02-28T02:33:32;99040.39;;;24.58;35.86
77893;BME280;67087;50.094;14.338;2023-02-28T02:35:51;99040.80;;;24.28;35.95
77893;BME280;67087;50.094;14.338;2023-02-28T02:38:13;99039.48;;;24.71;35.82
77893;BME280;67087;50.094;14.338;2023-02-28T02:40:39;99040.50;;;24.86;35.49
77893;BME280;67087;50.094;14.338;2023-02-28T02:43:02;99043.54;;;24.47;35.67
77893;BME280;67087;50.094;14.338;2023-02-28T02:45:28;99040.35;;;24.63;35.67
77893;BME280;67087;50.094;14.338;2023-02-28T02:47:51;99046.24;;;24.25;35.55
77893;BME280;67087;50.094;14.338;2023-02-28T02:50:20;99043.45;;;24.65;35.73
77893;BME280;67087;50.094;14.338;2023-02-28T02:52:44;99044.08;;;24.54;35.84
77893;BME280;67087;50.094;14.338;2023-02-28T02:55:08;99042.42;;;24.48;35.94
77893;BME280;67087;50.094;14.338;2023-02-28T02:57:35;99040.43;;;24.68;35.72
77893;BME280;67087;50.094;14.338;2023-02-28T02:59:57;99042.12;;;24.05;35.89
77893;BME280;67087;50.094;14.338;2023-02-28T03:02:22;99046.43;;;24.12;35.71
77893;BME280;67087;50.094;14.338;2023-02-28T03:04:51;99045.91;;;24.58;35.80
77893;BME280;67087;50.094;14.338;2023-02-28T03:07:12;99046.14;;;24.59;35.85
77893;BME280;67087;50.094;14.338;2023-02-28T03:09:37;99049.86;;;24.33;35.82
77893;BME280;67087;50.094;14.338;2023-02-28T03:12:04;99050.81;;;24.66;35.62
77893;BME280;67087;50.094;14.338;2023-02-28T03:14:37;99050.83;;;24.70;35.60
77893;BME280;67087;50.094;14.338;2023-02-28T03:17:03;99051.94;;;24.29;35.76
77893;BME280;67087;50.094;14.338;2023-02-28T03:19:30;99052.26;;;24.63;35.63
77893;BME280;67087;50.094;14.338;2023-02-28T03:21:46;99054.10;;;24.63;35.62
77893;BME280;67087;50.094;14.338;2023-02-28T03:24:10;99049.89;;;24.44;35.61
77893;BME280;67087;50.094;14.338;2023-02-28T03:26:35;99050.34;;;24.57;35.58
77893;BME280;67087;50.094;14.338;2023-02-28T03:29:03;99047.30;;;24.37;35.61
77893;BME280;67087;50.094;14.338;2023-02-28T03:31:27;99047.33;;;24.42;35.57
77893;BME280;67087;50.094;14.338;2023-02-28T03:33:53;99048.48;;;24.45;35.52
77893;BME280;67087;50.094;14.338;2023-02-28T03:36:17;99050.31;;;24.42;35.49
77893;BME280;67087;50.094;14.338;2023-02-28T03:38:42;99048.24;;;24.72;35.42
77893;BME280;67087;50.094;14.338;2023-02-28T03:41:08;99049.10;;;24.25;35.37
77893;BME280;67087;50.094;14.338;2023-02-28T03:43:33;99046.55;;;24.17;35.48
77893;BME280;67087;50.094;14.338;2023-02-28T03:45:55;99045.51;;;24.47;35.51
77893;BME280;67087;50.094;14.338;2023-02-28T03:48:22;99045.69;;;24.41;35.55
77893;BME280;67087;50.094;14.338;2023-02-28T03:50:47;99047.30;;;24.67;35.36
77893;BME280;67087;50.094;14.338;2023-02-28T03:53:13;99043.77;;;24.37;35.34
77893;BME280;67087;50.094;14.338;2023-02-28T03:55:40;99044.41;;;24.43;35.35
77893;BME280;67087;50.094;14.338;2023-02-28T03:58:05;99043.19;;;24.40;35.42
77893;BME280;67087;50.094;14.338;2023-02-28T04:00:28;99041.63;;;24.51;35.23
77893;BME280;67087;50.094;14.338;2023-02-28T04:02:50;99044.27;;;24.68;35.28
77893;BME280;67087;50.094;14.338;2023-02-28T04:05:15;99047.38;;;24.21;35.28
77893;BME280;67087;50.094;14.338;2023-02-28T04:07:40;99048.66;;;24.79;35.25
77893;BME280;67087;50.094;14.338;2023-02-28T04:10:07;99052.78;;;24.56;35.19
77893;BME280;67087;50.094;14.338;2023-02-28T04:12:31;99050.67;;;24.13;35.35
77893;BME280;67087;50.094;14.338;2023-02-28T04:14:56;99050.03;;;24.68;35.41
77893;BME280;67087;50.094;14.338;2023-02-28T04:17:21;99052.90;;;24.63;35.21
77893;BME280;67087;50.094;14.338;2023-02-28T04:19:46;99051.53;;;24.16;35.31
77893;BME280;67087;50.094;14.338;2023-02-28T04:22:11;99055.04;;;24.66;35.16
77893;BME280;67087;50.094;14.338;2023-02-28T04:24:36;99058.13;;;24.53;35.23
77893;BME280;67087;50.094;14.338;2023-02-28T04:27:02;99056.88;;;24.58;34.97
77893;BME280;67087;50.094;14.338;2023-02-28T04:29:28;99055.03;;;24.41;35.43
77893;BME280;67087;50.094;14.338;2023-02-28T04:31:52;99055.62;;;23.95;35.40
77893;BME280;67087;50.094;14.338;2023-02-28T04:34:17;99056.35;;;24.47;35.24
77893;BME280;67087;50.094;14.338;2023-02-28T04:36:42;99056.29;;;24.27;35.33
77893;BME280;67087;50.094;14.338;2023-02-28T04:39:07;99057.19;;;23.94;35.47
77893;BME280;67087;50.094;14.338;2023-02-28T04:41:33;99057.19;;;24.24;35.20
77893;BME280;67087;50.094;14.338;2023-02-28T04:43:58;99056.26;;;24.55;35.22
77893;BME280;67087;50.094;14.338;2023-02-28T04:46:23;99059.01;;;24.53;35.30
77893;BME280;67087;50.094;14.338;2023-02-28T04:48:48;99061.20;;;24.56;35.27
77893;BME280;67087;50.094;14.338;2023-02-28T04:51:15;99064.00;;;24.52;35.24
77893;BME280;67087;50.094;14.338;2023-02-28T04:53:39;99063.67;;;24.51;35.32
77893;BME280;67087;50.094;14.338;2023-02-28T04:56:04;99063.92;;;24.01;35.34
77893;BME280;67087;50.094;14.338;2023-02-28T04:58:28;99064.29;;;24.29;35.20
77893;BME280;67087;50.094;14.338;2023-02-28T05:00:56;99064.78;;;24.49;35.31
77893;BME280;67087;50.094;14.338;2023-02-28T05:03:19;99070.15;;;24.47;35.22
77893;BME280;67087;50.094;14.338;2023-02-28T05:05:44;99071.91;;;24.55;35.17
77893;BME280;67087;50.094;14.338;2023-02-28T05:08:09;99071.46;;;24.52;35.28
77893;BME280;67087;50.094;14.338;2023-02-28T05:10:34;99073.60;;;24.43;35.72
77893;BME280;67087;50.094;14.338;2023-02-28T05:12:59;99075.04;;;24.12;34.99
77893;BME280;67087;50.094;14.338;2023-02-28T05:15:24;99075.19;;;24.59;35.23
77893;BME280;67087;50.094;14.338;2023-02-28T05:17:50;99077.27;;;24.48;35.55
77893;BME280;67087;50.094;14.338;2023-02-28T05:20:15;99078.76;;;24.21;35.40
77893;BME280;67087;50.094;14.338;2023-02-28T05:22:40;99079.19;;;23.98;35.15
77893;BME280;67087;50.094;14.338;2023-02-28T05:25:06;99078.99;;;24.02;35.11
77893;BME280;67087;50.094;14.338;2023-02-28T05:27:30;99079.93;;;24.64;34.98
77893;BME280;67087;50.094;14.338;2023-02-28T05:29:55;99084.16;;;24.31;35.11
77893;BME280;67087;50.094;14.338;2023-02-28T05:32:20;99086.80;;;24.27;35.18
77893;BME280;67087;50.094;14.338;2023-02-28T05:34:46;99088.76;;;24.29;35.18
77893;BME280;67087;50.094;14.338;2023-02-28T05:37:12;99090.73;;;24.65;35.11
77893;BME280;67087;50.094;14.338;2023-02-28T05:39:36;99094.17;;;24.75;34.84
77893;BME280;67087;50.094;14.338;2023-02-28T05:42:01;99097.91;;;24.67;34.95
77893;BME280;67087;50.094;14.338;2023-02-28T05:44:26;99095.82;;;24.36;35.41
77893;BME280;67087;50.094;14.338;2023-02-28T05:46:51;99097.29;;;24.84;35.61
77893;BME280;67087;50.094;14.338;2023-02-28T05:49:16;99097.02;;;24.73;35.37
77893;BME280;67087;50.094;14.338;2023-02-28T05:51:42;99102.55;;;25.11;35.58
77893;BME280;67087;50.094;14.338;2023-02-28T05:54:07;99104.09;;;24.97;35.51
77893;BME280;67087;50.094;14.338;2023-02-28T05:56:32;99100.34;;;24.69;35.54
77893;BME280;67087;50.094;14.338;2023-02-28T05:58:57;99104.07;;;25.12;35.21
77893;BME280;67087;50.094;14.338;2023-02-28T06:01:33;99108.54;;;25.31;35.29
77893;BME280;67087;50.094;14.338;2023-02-28T06:03:47;99107.38;;;25.19;35.28
77893;BME280;67087;50.094;14.338;2023-02-28T06:06:12;99111.70;;;25.03;34.74
77893;BME280;67087;50.094;14.338;2023-02-28T06:08:37;99113.90;;;25.06;34.96
77893;BME280;67087;50.094;14.338;2023-02-28T06:11:03;99117.28;;;25.36;35.18
77893;BME280;67087;50.094;14.338;2023-02-28T06:13:28;99117.78;;;26.00;34.90
77893;BME280;67087;50.094;14.338;2023-02-28T06:15:53;99122.32;;;26.09;35.14
77893;BME280;67087;50.094;14.338;2023-02-28T06:18:19;99125.47;;;25.97;34.50
77893;BME280;67087;50.094;14.338;2023-02-28T06:20:44;99120.36;;;24.37;15.52
77893;BME280;67087;50.094;14.338;2023-02-28T06:23:09;99130.68;;;23.11;18.54
77893;BME280;67087;50.094;14.338;2023-02-28T06:25:35;99132.00;;;23.66;19.26
77893;BME280;67087;50.094;14.338;2023-02-28T06:28:01;99137.18;;;22.87;15.96
77893;BME280;67087;50.094;14.338;2023-02-28T06:30:26;99141.04;;;22.56;20.85
77893;BME280;67087;50.094;14.338;2023-02-28T06:32:51;99140.48;;;23.02;23.54
77893;BME280;67087;50.094;14.338;2023-02-28T06:35:17;99144.36;;;23.62;26.23
77893;BME280;67087;50.094;14.338;2023-02-28T06:37:42;99142.70;;;24.30;26.47
77893;BME280;67087;50.094;14.338;2023-02-28T06:40:09;99145.39;;;24.50;26.46
77893;BME280;67087;50.094;14.338;2023-02-28T06:42:32;99146.61;;;24.88;26.77
77893;BME280;67087;50.094;14.338;2023-02-28T06:44:58;99153.00;;;24.50;28.22
77893;BME280;67087;50.094;14.338;2023-02-28T06:47:23;99152.50;;;24.92;28.34
77893;BME280;67087;50.094;14.338;2023-02-28T06:49:48;99156.71;;;25.36;27.96
77893;BME280;67087;50.094;14.338;2023-02-28T06:52:14;99158.92;;;25.10;28.25
77893;BME280;67087;50.094;14.338;2023-02-28T06:54:40;99156.85;;;25.23;28.44
77893;BME280;67087;50.094;14.338;2023-02-28T06:57:05;99158.37;;;25.15;29.00
77893;BME280;67087;50.094;14.338;2023-02-28T06:59:30;99157.59;;;25.54;30.10
77893;BME280;67087;50.094;14.338;2023-02-28T07:01:55;99164.36;;;25.80;30.31
77893;BME280;67087;50.094;14.338;2023-02-28T07:04:21;99168.09;;;25.51;30.72
77893;BME280;67087;50.094;14.338;2023-02-28T07:06:45;99166.95;;;25.66;30.97
77893;BME280;67087;50.094;14.338;2023-02-28T07:09:11;99165.20;;;25.77;30.78
77893;BME280;67087;50.094;14.338;2023-02-28T07:11:37;99167.71;;;25.98;31.09
77893;BME280;67087;50.094;14.338;2023-02-28T07:14:02;99168.47;;;26.12;31.10
77893;BME280;67087;50.094;14.338;2023-02-28T07:16:27;99169.16;;;26.25;31.70
77893;BME280;67087;50.094;14.338;2023-02-28T07:18:53;99172.58;;;26.25;31.86
77893;BME280;67087;50.094;14.338;2023-02-28T07:21:18;99169.06;;;25.72;32.40
77893;BME280;67087;50.094;14.338;2023-02-28T07:23:43;99169.84;;;25.73;31.81
77893;BME280;67087;50.094;14.338;2023-02-28T07:26:12;99171.79;;;25.15;32.46
77893;BME280;67087;50.094;14.338;2023-02-28T07:28:34;99172.83;;;25.76;32.07
77893;BME280;67087;50.094;14.338;2023-02-28T07:31:04;99173.79;;;25.78;31.43
77893;BME280;67087;50.094;14.338;2023-02-28T07:33:25;99177.28;;;25.97;31.85
77893;BME280;67087;50.094;14.338;2023-02-28T07:35:50;99180.35;;;26.09;31.91
77893;BME280;67087;50.094;14.338;2023-02-28T07:38:16;99181.57;;;26.03;32.01
77893;BME280;67087;50.094;14.338;2023-02-28T07:40:41;99181.41;;;25.57;32.22
77893;BME280;67087;50.094;14.338;2023-02-28T07:43:06;99184.92;;;25.67;32.54
77893;BME280;67087;50.094;14.338;2023-02-28T07:45:32;99185.75;;;25.67;33.67
77893;BME280;67087;50.094;14.338;2023-02-28T07:47:57;99188.02;;;25.63;33.78
77893;BME280;67087;50.094;14.338;2023-02-28T07:50:22;99181.45;;;25.52;33.59
77893;BME280;67087;50.094;14.338;2023-02-28T07:52:48;99185.79;;;25.62;32.98
77893;BME280;67087;50.094;14.338;2023-02-28T07:55:13;99193.16;;;25.78;32.73
77893;BME280;67087;50.094;14.338;2023-02-28T07:57:39;99193.75;;;25.55;33.16
77893;BME280;67087;50.094;14.338;2023-02-28T08:00:09;99196.18;;;25.67;32.88
77893;BME280;67087;50.094;14.338;2023-02-28T08:02:30;99190.69;;;25.58;33.16
77893;BME280;67087;50.094;14.338;2023-02-28T08:04:54;99189.68;;;25.29;33.68
77893;BME280;67087;50.094;14.338;2023-02-28T08:07:20;99191.52;;;25.35;33.34
77893;BME280;67087;50.094;14.338;2023-02-28T08:09:45;99192.26;;;25.60;33.13
77893;BME280;67087;50.094;14.338;2023-02-28T08:12:11;99192.39;;;25.42;33.79
77893;BME280;67087;50.094;14.338;2023-02-28T08:14:36;99190.70;;;25.38;33.84
77893;BME280;67087;50.094;14.338;2023-02-28T08:17:01;99189.58;;;25.27;33.99
77893;BME280;67087;50.094;14.338;2023-02-28T08:19:26;99184.98;;;25.60;33.10
77893;BME280;67087;50.094;14.338;2023-02-28T08:21:51;99187.43;;;25.36;33.88
77893;BME280;67087;50.094;14.338;2023-02-28T08:24:16;99188.97;;;25.54;33.57
77893;BME280;67087;50.094;14.338;2023-02-28T08:26:42;99189.29;;;25.45;33.03
77893;BME280;67087;50.094;14.338;2023-02-28T08:29:07;99188.33;;;25.21;34.23
77893;BME280;67087;50.094;14.338;2023-02-28T08:31:33;99185.73;;;25.19;33.89
77893;BME280;67087;50.094;14.338;2023-02-28T08:33:58;99187.37;;;24.79;34.18
77893;BME280;67087;50.094;14.338;2023-02-28T08:36:24;99188.31;;;25.07;34.13
77893;BME280;67087;50.094;14.338;2023-02-28T08:38:48;99184.30;;;25.08;35.32
77893;BME280;67087;50.094;14.338;2023-02-28T08:41:13;99183.53;;;25.56;33.94
77893;BME280;67087;50.094;14.338;2023-02-28T08:43:39;99185.81;;;25.46;33.89
77893;BME280;67087;50.094;14.338;2023-02-28T08:46:04;99186.55;;;25.08;34.50
77893;BME280;67087;50.094;14.338;2023-02-28T08:48:31;99187.91;;;25.33;34.19
77893;BME280;67087;50.094;14.338;2023-02-28T08:50:56;99186.31;;;25.41;34.55
77893;BME280;67087;50.094;14.338;2023-02-28T08:53:20;99191.50;;;25.32;34.37
77893;BME280;67087;50.094;14.338;2023-02-28T08:55:45;99187.94;;;25.17;34.42
77893;BME280;67087;50.094;14.338;2023-02-28T08:58:10;99186.75;;;24.97;34.70
77893;BME280;67087;50.094;14.338;2023-02-28T09:00:35;99189.43;;;25.06;35.21
77893;BME280;67087;50.094;14.338;2023-02-28T09:03:00;99192.69;;;25.12;34.71
77893;BME280;67087;50.094;14.338;2023-02-28T09:05:26;99192.99;;;25.11;34.96
77893;BME280;67087;50.094;14.338;2023-02-28T09:07:51;99186.37;;;24.98;35.14
77893;BME280;67087;50.094;14.338;2023-02-28T09:10:17;99184.58;;;24.95;35.06
77893;BME280;67087;50.094;14.338;2023-02-28T09:12:42;99184.57;;;24.74;35.30
77893;BME280;67087;50.094;14.338;2023-02-28T09:15:08;99183.50;;;24.88;35.48
77893;BME280;67087;50.094;14.338;2023-02-28T09:17:33;99183.52;;;24.58;35.43
77893;BME280;67087;50.094;14.338;2023-02-28T09:19:58;99186.42;;;24.90;35.34
77893;BME280;67087;50.094;14.338;2023-02-28T09:22:23;99184.88;;;24.91;35.39
77893;BME280;67087;50.094;14.338;2023-02-28T09:24:48;99181.72;;;24.81;35.34
77893;BME280;67087;50.094;14.338;2023-02-28T09:27:13;99179.29;;;24.64;35.52
77893;BME280;67087;50.094;14.338;2023-02-28T09:29:39;99185.54;;;24.89;35.57
77893;BME280;67087;50.094;14.338;2023-02-28T09:32:04;99188.77;;;24.91;35.87
77893;BME280;67087;50.094;14.338;2023-02-28T09:34:29;99181.38;;;24.76;35.46
77893;BME280;67087;50.094;14.338;2023-02-28T09:36:54;99182.29;;;24.90;35.24
77893;BME280;67087;50.094;14.338;2023-02-28T09:39:19;99182.71;;;24.89;35.12
77893;BME280;67087;50.094;14.338;2023-02-28T09:41:47;99180.38;;;25.23;34.63
77893;BME280;67087;50.094;14.338;2023-02-28T09:44:15;99185.42;;;25.87;36.81
77893;BME280;67087;50.094;14.338;2023-02-28T09:46:38;99181.63;;;26.64;36.68
77893;BME280;67087;50.094;14.338;2023-02-28T09:49:03;99182.10;;;26.42;36.16
77893;BME280;67087;50.094;14.338;2023-02-28T09:51:35;99188.73;;;26.10;36.24
77893;BME280;67087;50.094;14.338;2023-02-28T09:53:53;99186.70;;;26.54;36.11
77893;BME280;67087;50.094;14.338;2023-02-28T09:56:21;99186.41;;;26.13;35.29
77893;BME280;67087;50.094;14.338;2023-02-28T09:58:46;99193.65;;;26.18;35.17
77893;BME280;67087;50.094;14.338;2023-02-28T10:01:10;99190.63;;;26.23;35.08
77893;BME280;67087;50.094;14.338;2023-02-28T10:03:35;99188.88;;;25.78;35.64
77893;BME280;67087;50.094;14.338;2023-02-28T10:06:02;99187.38;;;25.70;35.66
77893;BME280;67087;50.094;14.338;2023-02-28T10:08:25;99189.53;;;25.89;35.60
77893;BME280;67087;50.094;14.338;2023-02-28T10:10:50;99188.78;;;25.61;35.61
77893;BME280;67087;50.094;14.338;2023-02-28T10:13:19;99192.98;;;25.84;35.52
77893;BME280;67087;50.094;14.338;2023-02-28T10:15:38;99190.17;;;25.57;35.72
77893;BME280;67087;50.094;14.338;2023-02-28T10:18:05;99185.83;;;26.11;33.11
77893;BME280;67087;50.094;14.338;2023-02-28T10:20:29;99185.85;;;26.00;34.30
77893;BME280;67087;50.094;14.338;2023-02-28T10:22:58;99187.14;;;25.39;35.16
77893;BME280;67087;50.094;14.338;2023-02-28T10:25:21;99180.61;;;26.04;34.68
77893;BME280;67087;50.094;14.338;2023-02-28T10:27:44;99187.74;;;25.88;35.44
77893;BME280;67087;50.094;14.338;2023-02-28T10:30:11;99184.40;;;26.27;34.80
77893;BME280;67087;50.094;14.338;2023-02-28T10:32:36;99186.53;;;26.13;35.62
77893;BME280;67087;50.094;14.338;2023-02-28T10:35:07;99185.66;;;26.41;35.60
77893;BME280;67087;50.094;14.338;2023-02-28T10:37:25;99183.26;;;26.48;35.40
77893;BME280;67087;50.094;14.338;2023-02-28T10:39:50;99181.69;;;26.45;35.35
77893;BME280;67087;50.094;14.338;2023-02-28T10:42:21;99172.16;;;25.90;36.01
77893;BME280;67087;50.094;14.338;2023-02-28T10:44:40;99173.78;;;25.98;35.99
77893;BME280;67087;50.094;14.338;2023-02-28T10:47:14;99174.20;;;26.22;35.52
77893;BME280;67087;50.094;14.338;2023-02-28T10:49:31;99173.82;;;26.09;36.02
77893;BME280;67087;50.094;14.338;2023-02-28T10:51:59;99176.32;;;26.11;35.38
77893;BME280;67087;50.094;14.338;2023-02-28T10:54:26;99177.30;;;25.83;36.23
77893;BME280;67087;50.094;14.338;2023-02-28T10:59:27;99171.28;;;26.13;36.39
77893;BME280;67087;50.094;14.338;2023-02-28T11:01:40;99165.94;;;25.42;37.35
77893;BME280;67087;50.094;14.338;2023-02-28T11:04:16;99167.94;;;26.02;37.00
77893;BME280;67087;50.094;14.338;2023-02-28T11:06:31;99171.87;;;26.38;36.64
77893;BME280;67087;50.094;14.338;2023-02-28T11:08:56;99172.00;;;25.96;36.94
77893;BME280;67087;50.094;14.338;2023-02-28T11:11:22;99171.67;;;26.27;36.43
77893;BME280;67087;50.094;14.338;2023-02-28T11:13:47;99172.52;;;26.13;36.55
77893;BME280;67087;50.094;14.338;2023-02-28T11:16:13;99164.25;;;26.63;36.26
77893;BME280;67087;50.094;14.338;2023-02-28T11:18:42;99166.68;;;25.57;38.31
77893;BME280;67087;50.094;14.338;2023-02-28T11:21:03;99163.03;;;26.27;37.06
77893;BME280;67087;50.094;14.338;2023-02-28T11:23:30;99163.25;;;26.09;37.17
77893;BME280;67087;50.094;14.338;2023-02-28T11:25:57;99162.88;;;25.56;38.00
77893;BME280;67087;50.094;14.338;2023-02-28T11:28:26;99159.74;;;25.70;38.91
77893;BME280;67087;50.094;14.338;2023-02-28T11:30:44;99157.41;;;25.83;38.31
77893;BME280;67087;50.094;14.338;2023-02-28T11:33:22;99158.49;;;25.62;38.20
77893;BME280;67087;50.094;14.338;2023-02-28T11:35:38;99155.99;;;26.24;37.47
77893;BME280;67087;50.094;14.338;2023-02-28T11:38:01;99150.82;;;25.79;38.22
77893;BME280;67087;50.094;14.338;2023-02-28T11:40:33;99145.35;;;25.80;37.94
77893;BME280;67087;50.094;14.338;2023-02-28T11:43:01;99152.81;;;26.04;37.33
77893;BME280;67087;50.094;14.338;2023-02-28T11:45:35;99151.43;;;25.46;38.76
77893;BME280;67087;50.094;14.338;2023-02-28T11:47:47;99146.68;;;25.40;38.58
77893;BME280;67087;50.094;14.338;2023-02-28T11:50:19;99140.95;;;25.53;38.34
77893;BME280;67087;50.094;14.338;2023-02-28T11:52:39;99141.76;;;25.39;38.76
77893;BME280;67087;50.094;14.338;2023-02-28T11:55:04;99138.35;;;25.12;39.34
77893;BME280;67087;50.094;14.338;2023-02-28T11:57:36;99140.99;;;25.51;38.79
77893;BME280;67087;50.094;14.338;2023-02-28T11:59:56;99130.48;;;25.14;39.21
77893;BME280;67087;50.094;14.338;2023-02-28T12:02:23;99129.42;;;25.16;38.80
77893;BME280;67087;50.094;14.338;2023-02-28T12:04:45;99128.89;;;25.13;38.62
77893;BME280;67087;50.094;14.338;2023-02-28T12:07:09;99130.75;;;24.97;32.05
77893;BME280;67087;50.094;14.338;2023-02-28T12:09:40;99124.60;;;24.74;25.35
77893;BME280;67087;50.094;14.338;2023-02-28T12:11:56;99121.31;;;25.05;23.88
77893;BME280;67087;50.094;14.338;2023-02-28T12:14:31;99118.69;;;24.33;23.88
77893;BME280;67087;50.094;14.338;2023-02-28T12:16:54;99116.36;;;24.84;23.40
77893;BME280;67087;50.094;14.338;2023-02-28T12:19:17;99118.63;;;24.61;20.85
77893;BME280;67087;50.094;14.338;2023-02-28T12:21:45;99110.50;;;24.59;18.56
77893;BME280;67087;50.094;14.338;2023-02-28T12:26:34;99110.52;;;25.19;23.45
77893;BME280;67087;50.094;14.338;2023-02-28T12:28:57;99111.12;;;25.22;25.35
77893;BME280;67087;50.094;14.338;2023-02-28T12:31:20;99110.00;;;25.27;26.50
77893;BME280;67087;50.094;14.338;2023-02-28T12:33:47;99110.92;;;25.05;27.28
77893;BME280;67087;50.094;14.338;2023-02-28T12:36:11;99107.51;;;25.23;27.98
77893;BME280;67087;50.094;14.338;2023-02-28T12:38:38;99110.29;;;25.30;28.83
77893;BME280;67087;50.094;14.338;2023-02-28T12:41:01;99110.68;;;25.54;29.09
77893;BME280;67087;50.094;14.338;2023-02-28T12:43:30;99111.32;;;25.45;29.45